createdAt,value
2019-04-03T00:00:35.036Z,22.72
2019-04-03T00:01:04.030Z,22.72
2019-04-03T00:01:29.286Z,22.71
2019-04-03T00:01:53.911Z,22.70
2019-04-03T00:02:18.652Z,22.69
2019-04-03T00:02:43.368Z,22.68
2019-04-03T00:03:08.023Z,22.67
2019-04-03T00:03:34.190Z,22.66
2019-04-03T00:03:59.148Z,22.66
2019-04-03T00:04:23.899Z,22.66
2019-04-03T00:04:48.627Z,22.65
2019-04-03T00:05:13.275Z,22.64
2019-04-03T00:05:37.875Z,22.64
2019-04-03T00:06:03.728Z,22.63
2019-04-03T00:06:28.859Z,22.63
2019-04-03T00:06:53.461Z,22.63
2019-04-03T00:07:18.112Z,22.64
2019-04-03T00:07:42.788Z,22.63
2019-04-03T00:08:07.520Z,22.63
2019-04-03T00:08:32.163Z,22.63
2019-04-03T00:08:56.856Z,22.63
2019-04-03T00:09:21.481Z,22.61
2019-04-03T00:09:46.173Z,22.62
2019-04-03T00:10:10.785Z,22.61
2019-04-03T00:10:37.704Z,22.62
2019-04-03T00:11:02.350Z,22.61
2019-04-03T00:11:26.977Z,22.62
2019-04-03T00:11:51.599Z,22.62
2019-04-03T00:12:16.255Z,22.61
2019-04-03T00:12:41.289Z,22.63
2019-04-03T00:13:06.204Z,22.62
2019-04-03T00:13:30.833Z,22.61
2019-04-03T00:13:55.491Z,22.62
2019-04-03T00:14:20.109Z,22.61
2019-04-03T00:14:44.759Z,22.61
2019-04-03T00:15:09.369Z,22.60
2019-04-03T00:15:33.986Z,22.60
2019-04-03T00:15:58.591Z,22.60
2019-04-03T00:16:23.269Z,22.60
2019-04-03T00:16:47.955Z,22.59
2019-04-03T00:17:15.010Z,22.60
2019-04-03T00:17:39.569Z,22.59
2019-04-03T00:18:04.222Z,22.59
2019-04-03T00:18:28.871Z,22.59
2019-04-03T00:18:53.663Z,22.59
2019-04-03T00:19:18.350Z,22.58
2019-04-03T00:19:43.011Z,22.57
2019-04-03T00:20:07.785Z,22.57
2019-04-03T00:20:32.432Z,22.57
2019-04-03T00:20:57.187Z,22.56
2019-04-03T00:21:21.803Z,22.56
2019-04-03T00:21:46.573Z,22.56
2019-04-03T00:22:11.295Z,22.55
2019-04-03T00:22:37.490Z,22.54
2019-04-03T00:23:02.088Z,22.55
2019-04-03T00:23:27.119Z,22.56
2019-04-03T00:23:53.131Z,22.55
2019-04-03T00:24:18.800Z,22.54
2019-04-03T00:24:43.561Z,22.53
2019-04-03T00:25:08.209Z,22.54
2019-04-03T00:25:32.831Z,22.55
2019-04-03T00:25:57.552Z,22.53
2019-04-03T00:26:22.758Z,22.53
2019-04-03T00:26:47.507Z,22.53
2019-04-03T00:27:13.187Z,22.52
2019-04-03T00:27:37.948Z,22.51
2019-04-03T00:28:02.644Z,22.52
2019-04-03T00:28:27.274Z,22.51
2019-04-03T00:28:52.311Z,22.51
2019-04-03T00:29:17.287Z,22.51
2019-04-03T00:29:41.869Z,22.51
2019-04-03T00:30:07.873Z,22.50
2019-04-03T00:30:32.508Z,22.50
2019-04-03T00:30:57.156Z,22.50
2019-04-03T00:31:23.324Z,22.48
2019-04-03T00:31:48.217Z,22.48
2019-04-03T00:32:13.222Z,22.48
2019-04-03T00:32:37.989Z,22.49
2019-04-03T00:33:02.701Z,22.49
2019-04-03T00:33:27.327Z,22.49
2019-04-03T00:33:53.376Z,22.49
2019-04-03T00:34:18.539Z,22.49
2019-04-03T00:34:43.171Z,22.48
2019-04-03T00:35:07.767Z,22.48
2019-04-03T00:35:32.415Z,22.47
2019-04-03T00:35:57.070Z,22.48
2019-04-03T00:36:23.326Z,22.49
2019-04-03T00:36:48.618Z,22.48
2019-04-03T00:37:13.277Z,22.49
2019-04-03T00:37:37.917Z,22.48
2019-04-03T00:38:02.538Z,22.49
2019-04-03T00:38:27.167Z,22.48
2019-04-03T00:38:53.922Z,22.48
2019-04-03T00:39:18.121Z,22.47
2019-04-03T00:39:42.759Z,22.46
2019-04-03T00:40:07.711Z,22.47
2019-04-03T00:40:32.325Z,22.47
2019-04-03T00:40:57.039Z,22.47
2019-04-03T00:41:22.715Z,22.45
2019-04-03T00:41:48.049Z,22.46
2019-04-03T00:42:13.304Z,22.45
2019-04-03T00:42:37.947Z,22.45
2019-04-03T00:43:02.569Z,22.46
2019-04-03T00:43:27.223Z,22.45
2019-04-03T00:43:52.730Z,22.45
2019-04-03T00:44:18.209Z,22.45
2019-04-03T00:44:42.841Z,22.45
2019-04-03T00:45:07.440Z,22.45
2019-04-03T00:45:32.077Z,22.44
2019-04-03T00:45:56.774Z,22.45
2019-04-03T00:46:22.814Z,22.44
2019-04-03T00:46:47.822Z,22.44
2019-04-03T00:47:13.251Z,22.44
2019-04-03T00:47:37.866Z,22.43
2019-04-03T00:48:02.497Z,22.44
2019-04-03T00:48:27.123Z,22.43
2019-04-03T00:48:51.858Z,22.43
2019-04-03T00:49:16.551Z,22.42
2019-04-03T00:49:41.141Z,22.42
2019-04-03T00:50:07.361Z,22.42
2019-04-03T00:50:32.006Z,22.42
2019-04-03T00:50:57.533Z,22.41
2019-04-03T00:51:22.552Z,22.42
2019-04-03T00:51:47.266Z,22.40
2019-04-03T00:52:13.250Z,22.41
2019-04-03T00:52:37.941Z,22.41
2019-04-03T00:53:02.547Z,22.40
2019-04-03T00:53:27.707Z,22.41
2019-04-03T00:53:52.851Z,22.39
2019-04-03T00:54:17.510Z,22.40
2019-04-03T00:54:42.138Z,22.39
2019-04-03T00:55:06.770Z,22.39
2019-04-03T00:55:31.454Z,22.39
2019-04-03T00:55:56.821Z,22.39
2019-04-03T00:56:21.814Z,22.39
2019-04-03T00:56:46.452Z,22.40
2019-04-03T00:57:11.073Z,22.39
2019-04-03T00:57:35.695Z,22.39
2019-04-03T00:58:00.308Z,22.40
2019-04-03T00:58:38.326Z,22.40
2019-04-03T00:59:03.248Z,22.39
2019-04-03T00:59:27.914Z,22.40
2019-04-03T00:59:52.605Z,22.38
2019-04-03T01:00:17.503Z,22.38
2019-04-03T01:00:42.140Z,22.39
2019-04-03T01:01:08.056Z,22.38
2019-04-03T01:01:32.692Z,22.38
2019-04-03T01:01:57.602Z,22.38
2019-04-03T01:02:22.313Z,22.38
2019-04-03T01:02:46.938Z,22.37
2019-04-03T01:03:11.566Z,22.36
2019-04-03T01:03:36.198Z,22.36
2019-04-03T01:04:00.786Z,22.36
2019-04-03T01:04:28.306Z,22.36
2019-04-03T01:04:51.876Z,22.36
2019-04-03T01:05:16.505Z,22.35
2019-04-03T01:05:41.130Z,22.36
2019-04-03T01:06:06.890Z,22.36
2019-04-03T01:06:31.556Z,22.36
2019-04-03T01:06:56.832Z,22.36
2019-04-03T01:07:22.543Z,22.35
2019-04-03T01:07:47.182Z,22.36
2019-04-03T01:08:12.002Z,22.35
2019-04-03T01:08:36.744Z,22.35
2019-04-03T01:09:01.525Z,22.36
2019-04-03T01:09:26.288Z,22.35
2019-04-03T01:09:50.912Z,22.35
2019-04-03T01:10:15.540Z,22.34
2019-04-03T01:10:40.161Z,22.36
2019-04-03T01:11:05.436Z,22.35
2019-04-03T01:11:30.580Z,22.35
2019-04-03T01:11:55.776Z,22.34
2019-04-03T01:12:20.688Z,22.35
2019-04-03T01:12:45.316Z,22.34
2019-04-03T01:13:09.944Z,22.36
2019-04-03T01:13:34.606Z,22.35
2019-04-03T01:13:59.739Z,22.34
2019-04-03T01:14:25.592Z,22.35
2019-04-03T01:14:50.228Z,22.35
2019-04-03T01:15:14.953Z,22.36
2019-04-03T01:15:39.567Z,22.36
2019-04-03T01:16:04.682Z,22.35
2019-04-03T01:16:29.329Z,22.35
2019-04-03T01:16:54.034Z,22.35
2019-04-03T01:17:18.673Z,22.34
2019-04-03T01:17:43.318Z,22.34
2019-04-03T01:18:07.938Z,22.33
2019-04-03T01:18:34.338Z,22.33
2019-04-03T01:18:58.964Z,22.33
2019-04-03T01:19:23.974Z,22.33
2019-04-03T01:19:48.638Z,22.34
2019-04-03T01:20:13.522Z,22.32
2019-04-03T01:20:38.144Z,22.32
2019-04-03T01:21:02.807Z,22.32
2019-04-03T01:21:27.539Z,22.33
2019-04-03T01:21:52.258Z,22.32
2019-04-03T01:22:16.924Z,22.31
2019-04-03T01:22:41.606Z,22.32
2019-04-03T01:23:07.262Z,22.32
2019-04-03T01:23:32.513Z,22.31
2019-04-03T01:23:57.216Z,22.32
2019-04-03T01:24:21.827Z,22.30
2019-04-03T01:24:46.469Z,22.31
2019-04-03T01:25:11.112Z,22.31
2019-04-03T01:25:35.748Z,22.30
2019-04-03T01:26:00.403Z,22.30
2019-04-03T01:26:25.008Z,22.30
2019-04-03T01:26:49.759Z,22.29
2019-04-03T01:27:14.484Z,22.30
2019-04-03T01:27:41.103Z,22.29
2019-04-03T01:28:05.554Z,22.29
2019-04-03T01:28:30.340Z,22.27
2019-04-03T01:28:54.984Z,22.28
2019-04-03T01:29:19.640Z,22.27
2019-04-03T01:29:44.260Z,22.28
2019-04-03T01:30:09.060Z,22.27
2019-04-03T01:30:33.666Z,22.28
2019-04-03T01:30:58.304Z,22.25
2019-04-03T01:31:22.970Z,22.26
2019-04-03T01:31:47.668Z,22.27
2019-04-03T01:32:12.359Z,22.27
2019-04-03T01:32:38.545Z,22.27
2019-04-03T01:33:03.470Z,22.27
2019-04-03T01:33:28.222Z,22.27
2019-04-03T01:33:52.870Z,22.26
2019-04-03T01:34:18.088Z,22.26
2019-04-03T01:34:42.928Z,22.26
2019-04-03T01:35:09.317Z,22.26
2019-04-03T01:35:33.996Z,22.26
2019-04-03T01:35:58.607Z,22.25
2019-04-03T01:36:23.262Z,22.25
2019-04-03T01:36:48.257Z,22.25
2019-04-03T01:37:13.537Z,22.25
2019-04-03T01:37:38.188Z,22.24
2019-04-03T01:38:02.917Z,22.24
2019-04-03T01:38:27.503Z,22.25
2019-04-03T01:38:52.138Z,22.24
2019-04-03T01:39:16.802Z,22.24
2019-04-03T01:39:41.443Z,22.24
2019-04-03T01:40:06.845Z,22.23
2019-04-03T01:40:31.464Z,22.24
2019-04-03T01:40:56.094Z,22.24
2019-04-03T01:41:21.607Z,22.24
2019-04-03T01:41:46.381Z,22.23
2019-04-03T01:42:11.025Z,22.23
2019-04-03T01:42:35.728Z,22.22
2019-04-03T01:43:00.346Z,22.23
2019-04-03T01:43:25.041Z,22.22
2019-04-03T01:43:49.664Z,22.22
2019-04-03T01:44:14.357Z,22.22
2019-04-03T01:44:39.040Z,22.23
2019-04-03T01:45:03.905Z,22.22
2019-04-03T01:45:28.620Z,22.22
2019-04-03T01:45:53.279Z,22.22
2019-04-03T01:46:17.936Z,22.23
2019-04-03T01:46:42.561Z,22.22
2019-04-03T01:47:07.182Z,22.22
2019-04-03T01:47:31.838Z,22.22
2019-04-03T01:47:58.207Z,22.22
2019-04-03T01:48:22.883Z,22.23
2019-04-03T01:48:47.552Z,22.22
2019-04-03T01:49:12.161Z,22.21
2019-04-03T01:49:36.834Z,22.22
2019-04-03T01:50:01.471Z,22.23
2019-04-03T01:50:28.312Z,22.22
2019-04-03T01:50:52.506Z,22.21
2019-04-03T01:51:17.128Z,22.22
2019-04-03T01:51:41.791Z,22.20
2019-04-03T01:52:06.433Z,22.21
2019-04-03T01:52:31.877Z,22.20
2019-04-03T01:52:56.959Z,22.21
2019-04-03T01:53:21.576Z,22.22
2019-04-03T01:53:46.234Z,22.21
2019-04-03T01:54:10.812Z,22.21
2019-04-03T01:54:35.397Z,22.21
2019-04-03T01:55:00.166Z,22.20
2019-04-03T01:55:24.867Z,22.20
2019-04-03T01:55:49.470Z,22.21
2019-04-03T01:56:14.171Z,22.20
2019-04-03T01:56:39.091Z,22.20
2019-04-03T01:57:06.002Z,22.19
2019-04-03T01:57:30.233Z,22.19
2019-04-03T01:57:54.984Z,22.20
2019-04-03T01:58:19.738Z,22.19
2019-04-03T01:58:44.460Z,22.18
2019-04-03T01:59:09.193Z,22.18
2019-04-03T01:59:33.804Z,22.18
2019-04-03T01:59:58.455Z,22.17
2019-04-03T02:00:23.094Z,22.17
2019-04-03T02:00:47.892Z,22.18
2019-04-03T02:01:12.579Z,22.18
2019-04-03T02:01:38.684Z,22.17
2019-04-03T02:02:03.689Z,22.16
2019-04-03T02:02:28.309Z,22.17
2019-04-03T02:02:53.019Z,22.17
2019-04-03T02:03:17.682Z,22.17
2019-04-03T02:03:42.495Z,22.16
2019-04-03T02:04:07.176Z,22.16
2019-04-03T02:04:31.855Z,22.17
2019-04-03T02:04:56.543Z,22.16
2019-04-03T02:05:21.196Z,22.16
2019-04-03T02:05:45.858Z,22.15
2019-04-03T02:06:13.281Z,22.16
2019-04-03T02:06:36.907Z,22.15
2019-04-03T02:07:01.511Z,22.15
2019-04-03T02:07:26.165Z,22.15
2019-04-03T02:07:50.806Z,22.15
2019-04-03T02:08:15.458Z,22.15
2019-04-03T02:08:40.328Z,22.14
2019-04-03T02:09:07.859Z,22.14
2019-04-03T02:09:32.487Z,22.14
2019-04-03T02:09:57.113Z,22.14
2019-04-03T02:10:22.273Z,22.14
2019-04-03T02:10:48.940Z,22.14
2019-04-03T02:11:13.823Z,22.14
2019-04-03T02:11:38.909Z,22.14
2019-04-03T02:12:03.521Z,22.13
2019-04-03T02:12:28.177Z,22.12
2019-04-03T02:12:52.855Z,22.13
2019-04-03T02:13:17.500Z,22.14
2019-04-03T02:13:42.157Z,22.13
2019-04-03T02:14:06.769Z,22.13
2019-04-03T02:14:31.459Z,22.13
2019-04-03T02:14:56.386Z,22.13
2019-04-03T02:15:21.590Z,22.13
2019-04-03T02:15:47.204Z,22.11
2019-04-03T02:16:11.917Z,22.12
2019-04-03T02:16:36.550Z,22.11
2019-04-03T02:17:01.164Z,22.09
2019-04-03T02:17:25.793Z,22.11
2019-04-03T02:17:50.421Z,22.11
2019-04-03T02:18:15.121Z,22.12
2019-04-03T02:18:39.753Z,22.11
2019-04-03T02:19:04.389Z,22.10
2019-04-03T02:19:29.216Z,22.11
2019-04-03T02:19:55.924Z,22.11
2019-04-03T02:20:20.213Z,22.11
2019-04-03T02:20:44.951Z,22.11
2019-04-03T02:21:09.588Z,22.11
2019-04-03T02:21:34.233Z,22.11
2019-04-03T02:21:59.142Z,22.12
2019-04-03T02:22:23.891Z,22.09
2019-04-03T02:22:48.499Z,22.11
2019-04-03T02:23:13.962Z,22.11
2019-04-03T02:23:38.603Z,22.11
2019-04-03T02:24:03.195Z,22.11
2019-04-03T02:24:27.811Z,22.10
2019-04-03T02:24:52.803Z,22.10
2019-04-03T02:25:17.444Z,22.09
2019-04-03T02:25:42.030Z,22.11
2019-04-03T02:26:06.716Z,22.09
2019-04-03T02:26:32.518Z,22.10
2019-04-03T02:26:57.685Z,22.09
2019-04-03T02:27:22.477Z,22.09
2019-04-03T02:27:47.089Z,22.11
2019-04-03T02:28:11.729Z,22.08
2019-04-03T02:28:36.468Z,22.09
2019-04-03T02:29:01.056Z,22.09
2019-04-03T02:29:25.831Z,22.10
2019-04-03T02:29:50.616Z,22.09
2019-04-03T02:30:16.107Z,22.09
2019-04-03T02:30:44.755Z,22.09
2019-04-03T02:31:07.136Z,22.09
2019-04-03T02:31:31.761Z,22.09
2019-04-03T02:31:56.389Z,22.08
2019-04-03T02:32:23.212Z,22.09
2019-04-03T02:32:47.367Z,22.08
2019-04-03T02:33:12.042Z,22.08
2019-04-03T02:33:36.713Z,22.09
2019-04-03T02:34:02.522Z,22.08
2019-04-03T02:34:27.904Z,22.07
2019-04-03T02:34:52.775Z,22.07
2019-04-03T02:35:18.204Z,22.06
2019-04-03T02:35:43.123Z,22.07
2019-04-03T02:36:11.142Z,22.07
2019-04-03T02:36:34.074Z,22.05
2019-04-03T02:36:59.001Z,22.06
2019-04-03T02:37:23.951Z,22.06
2019-04-03T02:37:50.046Z,22.05
2019-04-03T02:38:15.932Z,22.06
2019-04-03T02:38:40.556Z,22.06
2019-04-03T02:39:05.976Z,22.06
2019-04-03T02:39:30.607Z,22.06
2019-04-03T02:39:58.962Z,22.07
2019-04-03T02:40:21.974Z,22.06
2019-04-03T02:40:46.555Z,22.05
2019-04-03T02:41:11.241Z,22.05
2019-04-03T02:41:37.030Z,22.05
2019-04-03T02:42:02.240Z,22.05
2019-04-03T02:42:26.930Z,22.04
2019-04-03T02:42:51.577Z,22.04
2019-04-03T02:43:16.294Z,22.05
2019-04-03T02:43:41.244Z,22.05
2019-04-03T02:44:05.835Z,22.05
2019-04-03T02:44:30.453Z,22.03
2019-04-03T02:44:55.306Z,22.03
2019-04-03T02:45:22.809Z,22.03
2019-04-03T02:45:46.351Z,22.03
2019-04-03T02:46:10.961Z,22.02
2019-04-03T02:46:35.637Z,22.02
2019-04-03T02:47:01.415Z,22.02
2019-04-03T02:47:26.258Z,22.02
2019-04-03T02:47:50.957Z,22.01
2019-04-03T02:48:15.712Z,22.01
2019-04-03T02:48:40.321Z,22.01
2019-04-03T02:49:04.926Z,22.02
2019-04-03T02:49:29.537Z,22.01
2019-04-03T02:49:54.153Z,22.01
2019-04-03T02:50:23.615Z,22.00
2019-04-03T02:50:48.542Z,22.01
2019-04-03T02:51:14.300Z,22.00
2019-04-03T02:51:39.507Z,21.99
2019-04-03T02:52:04.107Z,22.00
2019-04-03T02:52:28.762Z,22.00
2019-04-03T02:52:56.905Z,22.02
2019-04-03T02:53:20.124Z,22.01
2019-04-03T02:53:45.454Z,22.01
2019-04-03T02:54:25.234Z,22.00
2019-04-03T02:54:49.863Z,22.01
2019-04-03T02:55:14.480Z,22.00
2019-04-03T02:55:40.489Z,22.00
2019-04-03T02:56:05.642Z,21.99
2019-04-03T02:56:30.278Z,22.00
2019-04-03T02:56:56.483Z,21.99
2019-04-03T02:57:21.115Z,21.98
2019-04-03T02:57:48.440Z,21.98
2019-04-03T02:58:12.098Z,21.98
2019-04-03T02:58:36.815Z,21.96
2019-04-03T02:59:01.415Z,21.96
2019-04-03T02:59:26.934Z,21.96
2019-04-03T02:59:51.693Z,21.96
2019-04-03T03:00:16.305Z,21.96
2019-04-03T03:00:41.200Z,21.95
2019-04-03T03:01:07.225Z,21.96
2019-04-03T03:01:32.147Z,21.96
2019-04-03T03:01:56.772Z,21.95
2019-04-03T03:02:21.393Z,21.95
2019-04-03T03:02:46.310Z,21.95
2019-04-03T03:03:11.127Z,21.95
2019-04-03T03:03:35.923Z,21.95
2019-04-03T03:04:00.807Z,21.95
2019-04-03T03:04:26.253Z,21.94
2019-04-03T03:04:54.069Z,21.95
2019-04-03T03:05:17.400Z,21.93
2019-04-03T03:05:42.031Z,21.94
2019-04-03T03:06:06.643Z,21.93
2019-04-03T03:06:33.009Z,21.94
2019-04-03T03:06:57.599Z,21.92
2019-04-03T03:07:22.270Z,21.93
2019-04-03T03:07:46.970Z,21.92
2019-04-03T03:08:11.646Z,21.92
2019-04-03T03:08:36.218Z,21.91
2019-04-03T03:09:01.101Z,21.92
2019-04-03T03:09:25.763Z,21.92
2019-04-03T03:09:50.747Z,21.91
2019-04-03T03:10:18.675Z,21.92
2019-04-03T03:10:41.683Z,21.91
2019-04-03T03:11:06.495Z,21.91
2019-04-03T03:11:31.099Z,21.92
2019-04-03T03:11:56.904Z,21.91
2019-04-03T03:12:22.614Z,21.92
2019-04-03T03:12:47.429Z,21.91
2019-04-03T03:13:12.953Z,21.92
2019-04-03T03:13:37.869Z,21.91
2019-04-03T03:14:04.268Z,21.92
2019-04-03T03:14:29.761Z,21.91
2019-04-03T03:14:54.473Z,21.90
2019-04-03T03:15:19.128Z,21.90
2019-04-03T03:15:44.900Z,21.90
2019-04-03T03:16:10.158Z,21.90
2019-04-03T03:16:34.857Z,21.90
2019-04-03T03:16:59.789Z,21.90
2019-04-03T03:17:24.844Z,21.91
2019-04-03T03:17:49.847Z,21.90
2019-04-03T03:18:14.688Z,21.89
2019-04-03T03:18:39.436Z,21.89
2019-04-03T03:19:04.091Z,21.89
2019-04-03T03:19:31.762Z,21.89
2019-04-03T03:19:55.117Z,21.89
2019-04-03T03:20:22.342Z,21.89
2019-04-03T03:20:46.971Z,21.88
2019-04-03T03:21:12.750Z,21.89
2019-04-03T03:21:38.036Z,21.89
2019-04-03T03:22:02.718Z,21.89
2019-04-03T03:22:27.806Z,21.88
2019-04-03T03:22:52.470Z,21.88
2019-04-03T03:23:17.427Z,21.88
2019-04-03T03:23:42.064Z,21.87
2019-04-03T03:24:06.685Z,21.87
2019-04-03T03:24:32.180Z,21.85
2019-04-03T03:24:59.852Z,21.86
2019-04-03T03:25:23.850Z,21.86
2019-04-03T03:25:49.026Z,21.85
2019-04-03T03:26:13.806Z,21.85
2019-04-03T03:26:38.425Z,21.84
2019-04-03T03:27:03.051Z,21.85
2019-04-03T03:27:27.697Z,21.85
2019-04-03T03:27:52.335Z,21.84
2019-04-03T03:28:17.184Z,21.84
2019-04-03T03:28:45.562Z,21.83
2019-04-03T03:29:17.980Z,21.84
2019-04-03T03:29:35.044Z,21.82
2019-04-03T03:30:00.300Z,21.81
2019-04-03T03:30:44.144Z,21.80
2019-04-03T03:31:01.156Z,21.81
2019-04-03T03:31:18.947Z,21.81
2019-04-03T03:32:06.275Z,21.81
2019-04-03T03:32:17.865Z,21.80
2019-04-03T03:32:37.623Z,21.80
2019-04-03T03:33:24.435Z,21.79
2019-04-03T03:33:35.509Z,21.78
2019-04-03T03:34:00.501Z,21.79
2019-04-03T03:34:44.890Z,21.77
2019-04-03T03:34:57.017Z,21.77
2019-04-03T03:35:19.934Z,21.78
2019-04-03T03:35:45.258Z,21.78
2019-04-03T03:36:08.214Z,21.77
2019-04-03T03:36:33.527Z,21.78
2019-04-03T03:37:01.819Z,21.75
2019-04-03T03:37:24.607Z,21.77
2019-04-03T03:37:50.010Z,21.76
2019-04-03T03:38:15.777Z,21.76
2019-04-03T03:38:40.893Z,21.76
2019-04-03T03:39:06.423Z,21.75
2019-04-03T03:39:32.921Z,21.75
2019-04-03T03:39:57.569Z,21.75
2019-04-03T03:40:22.440Z,21.75
2019-04-03T03:40:49.210Z,21.74
2019-04-03T03:41:14.296Z,21.75
2019-04-03T03:41:38.886Z,21.75
2019-04-03T03:42:03.521Z,21.73
2019-04-03T03:42:30.970Z,21.74
2019-04-03T03:42:54.876Z,21.74
2019-04-03T03:43:19.740Z,21.75
2019-04-03T03:43:44.432Z,21.75
2019-04-03T03:44:10.277Z,21.74
2019-04-03T03:44:35.397Z,21.73
2019-04-03T03:45:01.468Z,21.74
2019-04-03T03:45:26.100Z,21.74
2019-04-03T03:45:52.533Z,21.73
2019-04-03T03:46:18.004Z,21.73
2019-04-03T03:46:42.795Z,21.75
2019-04-03T03:47:07.420Z,21.75
2019-04-03T03:47:35.133Z,21.74
2019-04-03T03:48:00.074Z,21.75
2019-04-03T03:48:24.798Z,21.74
2019-04-03T03:48:49.762Z,21.73
2019-04-03T03:49:17.206Z,21.74
2019-04-03T03:49:41.081Z,21.73
2019-04-03T03:50:07.438Z,21.73
2019-04-03T03:50:35.926Z,21.73
2019-04-03T03:51:00.945Z,21.72
2019-04-03T03:51:30.145Z,21.71
2019-04-03T03:51:52.001Z,21.72
2019-04-03T03:52:16.675Z,21.71
2019-04-03T03:52:41.304Z,21.71
2019-04-03T03:53:10.159Z,21.72
2019-04-03T03:53:32.472Z,21.72
2019-04-03T03:53:57.078Z,21.71
2019-04-03T03:54:21.749Z,21.72
2019-04-03T03:54:49.728Z,21.71
2019-04-03T03:55:12.982Z,21.72
2019-04-03T03:55:37.689Z,21.71
2019-04-03T03:56:02.327Z,21.70
2019-04-03T03:56:30.575Z,21.70
2019-04-03T03:56:53.295Z,21.70
2019-04-03T03:57:17.925Z,21.70
2019-04-03T03:57:42.905Z,21.69
2019-04-03T03:58:11.034Z,21.68
2019-04-03T03:58:34.012Z,21.68
2019-04-03T03:58:58.936Z,21.70
2019-04-03T03:59:23.741Z,21.69
2019-04-03T03:59:51.193Z,21.68
2019-04-03T04:00:14.738Z,21.67
2019-04-03T04:00:39.783Z,21.66
2019-04-03T04:01:04.549Z,21.67
2019-04-03T04:01:31.431Z,21.67
2019-04-03T04:01:55.582Z,21.67
2019-04-03T04:02:20.489Z,21.66
2019-04-03T04:02:45.356Z,21.66
2019-04-03T04:03:11.162Z,21.65
2019-04-03T04:03:40.350Z,21.63
2019-04-03T04:04:02.627Z,21.64
2019-04-03T04:04:27.345Z,21.64
2019-04-03T04:04:52.009Z,21.62
2019-04-03T04:05:19.948Z,21.61
2019-04-03T04:05:43.005Z,21.63
2019-04-03T04:06:07.977Z,21.64
2019-04-03T04:06:35.905Z,21.66
2019-04-03T04:07:02.076Z,21.65
2019-04-03T04:07:26.152Z,21.64
2019-04-03T04:07:50.888Z,21.65
2019-04-03T04:08:15.533Z,21.64
2019-04-03T04:08:42.642Z,21.65
2019-04-03T04:09:08.323Z,21.63
2019-04-03T04:09:33.426Z,21.63
2019-04-03T04:09:58.560Z,21.64
2019-04-03T04:10:25.483Z,21.66
2019-04-03T04:10:50.087Z,21.63
2019-04-03T04:11:14.997Z,21.63
2019-04-03T04:11:39.898Z,21.64
2019-04-03T04:12:06.676Z,21.63
2019-04-03T04:12:31.264Z,21.63
2019-04-03T04:12:55.991Z,21.63
2019-04-03T04:13:20.915Z,21.63
2019-04-03T04:13:48.505Z,21.62
2019-04-03T04:14:12.638Z,21.62
2019-04-03T04:14:37.315Z,21.63
2019-04-03T04:15:02.300Z,21.62
2019-04-03T04:15:29.927Z,21.62
2019-04-03T04:15:53.441Z,21.62
2019-04-03T04:16:18.878Z,21.61
2019-04-03T04:16:44.262Z,21.61
2019-04-03T04:17:14.769Z,21.61
2019-04-03T04:17:35.884Z,21.62
2019-04-03T04:18:00.580Z,21.62
2019-04-03T04:18:25.224Z,21.62
2019-04-03T04:18:50.168Z,21.62
2019-04-03T04:19:15.238Z,21.62
2019-04-03T04:19:40.264Z,21.63
2019-04-03T04:20:06.918Z,21.63
2019-04-03T04:20:32.208Z,21.63
2019-04-03T04:20:57.065Z,21.63
2019-04-03T04:21:21.846Z,21.62
2019-04-03T04:21:46.488Z,21.63
2019-04-03T04:22:11.112Z,21.63
2019-04-03T04:22:35.787Z,21.64
2019-04-03T04:23:00.763Z,21.65
2019-04-03T04:23:25.481Z,21.63
2019-04-03T04:23:50.318Z,21.66
2019-04-03T04:24:14.940Z,21.65
2019-04-03T04:24:39.576Z,21.66
2019-04-03T04:25:05.449Z,21.67
2019-04-03T04:25:31.021Z,21.64
2019-04-03T04:25:56.050Z,21.66
2019-04-03T04:26:20.689Z,21.67
2019-04-03T04:26:45.355Z,21.66
2019-04-03T04:27:09.991Z,21.67
2019-04-03T04:27:37.872Z,21.67
2019-04-03T04:28:01.245Z,21.66
2019-04-03T04:28:26.293Z,21.66
2019-04-03T04:28:51.160Z,21.65
2019-04-03T04:29:15.887Z,21.66
2019-04-03T04:29:41.840Z,21.67
2019-04-03T04:30:06.893Z,21.67
2019-04-03T04:30:31.588Z,21.68
2019-04-03T04:30:56.277Z,21.67
2019-04-03T04:31:21.869Z,21.69
2019-04-03T04:31:46.676Z,21.69
2019-04-03T04:32:14.514Z,21.70
2019-04-03T04:32:37.868Z,21.69
2019-04-03T04:33:02.487Z,21.70
2019-04-03T04:33:27.365Z,21.69
2019-04-03T04:33:52.027Z,21.71
2019-04-03T04:34:18.642Z,21.71
2019-04-03T04:34:43.051Z,21.71
2019-04-03T04:35:10.364Z,21.71
2019-04-03T04:35:34.027Z,21.72
2019-04-03T04:35:58.687Z,21.72
2019-04-03T04:36:24.301Z,21.73
2019-04-03T04:36:49.608Z,21.73
2019-04-03T04:37:14.237Z,21.73
2019-04-03T04:37:40.331Z,21.73
2019-04-03T04:38:05.279Z,21.74
2019-04-03T04:38:29.940Z,21.74
2019-04-03T04:38:55.813Z,21.75
2019-04-03T04:39:21.091Z,21.76
2019-04-03T04:39:45.753Z,21.76
2019-04-03T04:40:10.467Z,21.76
2019-04-03T04:40:35.231Z,21.76
2019-04-03T04:41:01.816Z,21.78
2019-04-03T04:41:26.211Z,21.78
2019-04-03T04:41:50.898Z,21.79
2019-04-03T04:42:15.696Z,21.79
2019-04-03T04:42:40.392Z,21.80
2019-04-03T04:43:07.462Z,21.81
2019-04-03T04:43:31.467Z,21.82
2019-04-03T04:43:56.139Z,21.84
2019-04-03T04:44:20.793Z,21.85
2019-04-03T04:44:45.522Z,21.87
2019-04-03T04:45:11.809Z,21.87
2019-04-03T04:45:36.607Z,21.88
2019-04-03T04:46:01.226Z,21.91
2019-04-03T04:46:25.883Z,21.92
2019-04-03T04:46:50.533Z,21.92
2019-04-03T04:47:15.732Z,21.94
2019-04-03T04:47:40.512Z,21.94
2019-04-03T04:48:05.164Z,21.95
2019-04-03T04:48:29.811Z,21.96
2019-04-03T04:48:54.411Z,21.98
2019-04-03T04:49:19.061Z,21.99
2019-04-03T04:49:43.699Z,22.00
2019-04-03T04:50:08.591Z,22.00
2019-04-03T04:50:33.227Z,22.00
2019-04-03T04:50:57.874Z,22.00
2019-04-03T04:51:23.933Z,22.02
2019-04-03T04:51:48.846Z,22.02
2019-04-03T04:52:13.656Z,22.03
2019-04-03T04:52:38.423Z,22.04
2019-04-03T04:53:03.142Z,22.04
2019-04-03T04:53:29.868Z,22.04
2019-04-03T04:53:54.459Z,22.06
2019-04-03T04:54:19.165Z,22.07
2019-04-03T04:54:44.056Z,22.08
2019-04-03T04:55:08.709Z,22.09
2019-04-03T04:55:35.110Z,22.09
2019-04-03T04:56:29.738Z,22.16
2019-04-03T04:56:54.380Z,22.11
2019-04-03T04:57:19.016Z,22.12
2019-04-03T04:57:43.695Z,22.13
2019-04-03T04:58:09.895Z,22.12
2019-04-03T04:58:35.063Z,22.13
2019-04-03T04:58:59.779Z,22.14
2019-04-03T04:59:24.443Z,22.14
2019-04-03T04:59:49.114Z,22.15
2019-04-03T05:00:15.663Z,22.13
2019-04-03T05:00:40.590Z,22.14
2019-04-03T05:01:05.224Z,22.13
2019-04-03T05:01:30.186Z,22.14
2019-04-03T05:01:54.954Z,22.13
2019-04-03T05:02:20.205Z,22.14
2019-04-03T05:02:45.129Z,22.13
2019-04-03T05:03:09.751Z,22.14
2019-04-03T05:03:34.421Z,22.14
2019-04-03T05:03:59.067Z,22.15
2019-04-03T05:04:25.294Z,22.14
2019-04-03T05:04:50.176Z,22.16
2019-04-03T05:05:15.035Z,22.17
2019-04-03T05:05:39.725Z,22.17
2019-04-03T05:06:04.356Z,22.18
2019-04-03T05:06:29.718Z,22.16
2019-04-03T05:06:55.028Z,22.17
2019-04-03T05:07:19.811Z,22.18
2019-04-03T05:07:44.449Z,22.20
2019-04-03T05:08:09.109Z,22.20
2019-04-03T05:08:33.709Z,22.19
2019-04-03T05:08:58.381Z,22.19
2019-04-03T05:09:22.994Z,22.19
2019-04-03T05:09:47.769Z,22.18
2019-04-03T05:10:13.828Z,22.20
2019-04-03T05:11:08.473Z,22.26
2019-04-03T05:11:33.177Z,22.24
2019-04-03T05:11:57.828Z,22.24
2019-04-03T05:12:22.443Z,22.26
2019-04-03T05:12:47.106Z,22.25
2019-04-03T05:13:11.760Z,22.25
2019-04-03T05:13:36.431Z,22.26
2019-04-03T05:14:01.259Z,22.26
2019-04-03T05:14:26.026Z,22.28
2019-04-03T05:14:50.839Z,22.28
2019-04-03T05:15:16.351Z,22.31
2019-04-03T05:15:42.501Z,22.32
2019-04-03T05:16:07.187Z,22.32
2019-04-03T05:16:31.893Z,22.33
2019-04-03T05:16:56.778Z,22.35
2019-04-03T05:17:21.450Z,22.36
2019-04-03T05:17:46.099Z,22.38
2019-04-03T05:18:10.729Z,22.39
2019-04-03T05:18:35.393Z,22.40
2019-04-03T05:19:09.583Z,22.40
2019-04-03T05:19:26.332Z,22.41
2019-04-03T05:19:50.928Z,22.41
2019-04-03T05:20:15.587Z,22.44
2019-04-03T05:20:40.235Z,22.43
2019-04-03T05:21:05.288Z,22.44
2019-04-03T05:21:29.902Z,22.47
2019-04-03T05:21:54.568Z,22.46
2019-04-03T05:22:19.215Z,22.47
2019-04-03T05:22:43.844Z,22.48
2019-04-03T05:23:08.459Z,22.48
2019-04-03T05:23:33.156Z,22.47
2019-04-03T05:24:10.370Z,22.48
2019-04-03T05:24:24.304Z,22.50